createdAt,value
2023-04-08T00:01:22.501Z,73.12
2023-04-08T00:03:50.990Z,72.78
2023-04-08T00:06:19.493Z,72.69
2023-04-08T00:08:47.886Z,73.19
2023-04-08T00:11:16.465Z,73.12
2023-04-08T00:13:44.931Z,73.19
2023-04-08T00:16:13.620Z,73.44
2023-04-08T00:18:43.036Z,73.58
2023-04-08T00:21:11.723Z,73.95
2023-04-08T00:23:40.616Z,73.84
2023-04-08T00:26:08.806Z,73.76
2023-04-08T00:28:38.397Z,73.70
2023-04-08T00:31:07.078Z,73.49
2023-04-08T00:33:35.902Z,73.61
2023-04-08T00:36:04.838Z,73.45
2023-04-08T00:38:33.708Z,73.91
2023-04-08T00:41:02.007Z,74.02
2023-04-08T00:43:30.569Z,74.07
2023-04-08T00:45:59.487Z,74.04
2023-04-08T00:48:28.254Z,73.42
2023-04-08T00:50:56.838Z,73.27
2023-04-08T00:53:25.887Z,73.02
2023-04-08T00:55:54.424Z,73.08
2023-04-08T00:58:23.196Z,72.86
2023-04-08T01:00:58.869Z,72.62
2023-04-08T01:04:16.968Z,72.59
2023-04-08T01:06:54.278Z,72.61
2023-04-08T01:09:28.288Z,72.26
2023-04-08T01:11:57.980Z,72.31
2023-04-08T01:14:28.434Z,72.64
2023-04-08T01:16:59.380Z,72.71
2023-04-08T01:19:33.392Z,72.54
2023-04-08T01:22:13.341Z,72.27
2023-04-08T01:24:44.393Z,72.71
2023-04-08T01:27:14.615Z,72.67
2023-04-08T01:29:44.535Z,72.82
2023-04-08T01:32:14.753Z,72.87
2023-04-08T01:34:45.500Z,73.12
2023-04-08T01:37:15.837Z,73.18
2023-04-08T01:39:45.954Z,73.33
2023-04-08T01:42:14.560Z,73.52
2023-04-08T01:44:43.600Z,73.85
2023-04-08T01:47:14.352Z,74.00
2023-04-08T01:49:44.507Z,74.43
2023-04-08T01:52:14.943Z,74.59
2023-04-08T01:54:43.424Z,74.62
2023-04-08T01:57:17.846Z,74.82
2023-04-08T01:59:51.652Z,75.02
2023-04-08T02:02:27.410Z,75.21
2023-04-08T02:04:56.815Z,74.78
2023-04-08T02:07:25.300Z,75.05
2023-04-08T02:09:53.464Z,75.03
2023-04-08T02:12:21.866Z,75.07
2023-04-08T02:14:50.052Z,75.18
2023-04-08T02:17:25.650Z,75.31
2023-04-08T02:20:11.247Z,75.32
2023-04-08T02:22:39.962Z,75.38
2023-04-08T02:25:17.994Z,75.53
2023-04-08T02:27:49.452Z,75.25
2023-04-08T02:30:19.142Z,75.29
2023-04-08T02:32:50.874Z,75.14
2023-04-08T02:35:20.555Z,74.85
2023-04-08T02:37:49.311Z,74.86
2023-04-08T02:40:25.536Z,75.11
2023-04-08T02:42:54.669Z,75.14
2023-04-08T02:45:27.654Z,75.02
2023-04-08T02:47:56.399Z,74.97
2023-04-08T02:50:25.140Z,74.84
2023-04-08T02:52:53.744Z,74.57
2023-04-08T02:55:22.216Z,74.52
2023-04-08T02:57:50.705Z,74.18
2023-04-08T03:00:19.214Z,73.97
2023-04-08T03:02:47.911Z,74.08
2023-04-08T03:05:17.101Z,73.90
2023-04-08T03:07:45.674Z,73.88
2023-04-08T03:10:14.059Z,73.84
2023-04-08T03:12:42.447Z,73.95
2023-04-08T03:15:11.035Z,74.01
2023-04-08T03:17:39.548Z,74.15
2023-04-08T03:20:09.400Z,73.89
2023-04-08T03:22:38.135Z,73.83
2023-04-08T03:25:07.039Z,73.90
2023-04-08T03:27:35.409Z,74.14
2023-04-08T03:30:04.147Z,74.26
2023-04-08T03:32:33.311Z,74.41
2023-04-08T03:35:01.795Z,74.41
2023-04-08T03:37:30.628Z,74.35
2023-04-08T03:39:58.971Z,74.79
2023-04-08T03:42:27.562Z,74.94
2023-04-08T03:44:56.254Z,75.17
2023-04-08T03:47:25.066Z,75.42
2023-04-08T03:49:54.966Z,75.61
2023-04-08T03:52:25.073Z,75.90
2023-04-08T03:54:53.382Z,76.00
2023-04-08T03:57:21.665Z,76.16
2023-04-08T03:59:49.833Z,76.32
2023-04-08T04:02:18.053Z,76.42
2023-04-08T04:04:46.871Z,76.50
2023-04-08T04:07:15.295Z,76.53
2023-04-08T04:09:43.571Z,76.61
2023-04-08T04:12:12.161Z,76.63
2023-04-08T04:14:40.954Z,76.49
2023-04-08T04:17:09.351Z,76.71
2023-04-08T04:19:38.031Z,76.55
2023-04-08T04:22:06.417Z,76.49
2023-04-08T04:24:34.907Z,76.48
2023-04-08T04:27:03.393Z,76.43
2023-04-08T04:29:33.225Z,76.43
2023-04-08T04:32:01.502Z,76.12
2023-04-08T04:34:29.976Z,76.18
2023-04-08T04:36:58.357Z,76.30
2023-04-08T04:39:27.568Z,76.24
2023-04-08T04:41:55.850Z,76.21
2023-04-08T04:44:24.353Z,76.12
2023-04-08T04:46:53.355Z,75.80
2023-04-08T04:49:22.226Z,75.52
2023-04-08T04:51:50.711Z,75.57
2023-04-08T04:54:19.096Z,75.23
2023-04-08T04:56:47.481Z,74.87
2023-04-08T04:59:15.971Z,74.95
2023-04-08T05:01:44.437Z,74.93
2023-04-08T05:04:12.842Z,74.89
2023-04-08T05:06:41.230Z,74.89
2023-04-08T05:09:09.417Z,75.14
2023-04-08T05:11:37.711Z,75.13
2023-04-08T05:14:07.305Z,75.08
2023-04-08T05:16:36.251Z,75.09
2023-04-08T05:19:05.003Z,75.35
2023-04-08T05:21:33.381Z,75.12
2023-04-08T05:24:01.781Z,75.02
2023-04-08T05:26:29.952Z,75.10
2023-04-08T05:28:58.467Z,75.01
2023-04-08T05:31:27.313Z,75.11
2023-04-08T05:33:55.816Z,74.96
2023-04-08T05:36:24.098Z,74.93
2023-04-08T05:38:52.551Z,75.09
2023-04-08T05:41:21.701Z,75.52
2023-04-08T05:43:49.976Z,75.53
2023-04-08T05:46:18.996Z,75.62
2023-04-08T05:48:48.040Z,75.69
2023-04-08T05:51:18.426Z,76.27
2023-04-08T05:53:47.293Z,76.20
2023-04-08T05:56:15.680Z,76.26
2023-04-08T05:58:44.063Z,75.87
2023-04-08T06:01:12.852Z,75.78
2023-04-08T06:03:41.419Z,75.94
2023-04-08T06:06:11.927Z,75.84
2023-04-08T06:08:41.244Z,75.74
2023-04-08T06:11:09.555Z,75.58
2023-04-08T06:13:38.560Z,75.70
2023-04-08T06:16:15.591Z,75.77
2023-04-08T06:18:44.328Z,75.49
2023-04-08T06:21:13.123Z,75.21
2023-04-08T06:23:42.036Z,74.88
2023-04-08T06:26:11.037Z,74.47
2023-04-08T06:28:39.502Z,74.12
2023-04-08T06:31:07.788Z,73.66
2023-04-08T06:33:36.069Z,73.33
2023-04-08T06:36:06.017Z,72.67
2023-04-08T06:38:34.584Z,72.04
2023-04-08T06:41:06.962Z,71.63
2023-04-08T06:43:38.024Z,71.67
2023-04-08T06:46:07.407Z,71.46
2023-04-08T06:48:37.905Z,71.14
2023-04-08T06:51:08.033Z,71.09
2023-04-08T06:53:36.557Z,71.32
2023-04-08T06:56:05.348Z,71.20
2023-04-08T06:58:33.467Z,71.06
2023-04-08T07:01:03.355Z,70.83
2023-04-08T07:03:31.994Z,70.35
2023-04-08T07:06:00.626Z,70.36
2023-04-08T07:08:29.119Z,70.38
2023-04-08T07:10:57.599Z,70.06
2023-04-08T07:13:26.190Z,69.74
2023-04-08T07:15:54.764Z,69.57
2023-04-08T07:18:23.958Z,68.71
2023-04-08T07:20:54.123Z,68.50
2023-04-08T07:23:23.108Z,68.59
2023-04-08T07:25:51.700Z,68.71
2023-04-08T07:28:22.632Z,68.55
2023-04-08T07:30:50.938Z,68.49
2023-04-08T07:33:20.123Z,68.49
2023-04-08T07:35:48.643Z,68.31
2023-04-08T07:38:17.194Z,67.89
2023-04-08T07:40:45.380Z,67.31
2023-04-08T07:43:13.761Z,66.83
2023-04-08T07:45:42.860Z,66.60
2023-04-08T07:48:11.396Z,66.27
2023-04-08T07:51:07.980Z,65.34
2023-04-08T07:53:28.787Z,65.44
2023-04-08T07:55:58.604Z,65.33
2023-04-08T07:58:27.459Z,64.32
2023-04-08T08:00:57.625Z,64.03
2023-04-08T08:03:26.110Z,61.78
2023-04-08T08:05:54.700Z,61.94
2023-04-08T08:08:23.083Z,60.80
2023-04-08T08:10:51.273Z,59.98
2023-04-08T08:13:22.415Z,59.63
2023-04-08T08:15:54.128Z,59.60
2023-04-08T08:18:22.563Z,58.07
2023-04-08T08:20:51.070Z,59.09
2023-04-08T08:23:19.331Z,57.75
2023-04-08T08:25:47.814Z,57.49
2023-04-08T08:28:15.994Z,58.20
2023-04-08T08:30:44.279Z,58.33
2023-04-08T08:33:12.867Z,58.57
2023-04-08T08:35:41.094Z,58.17
2023-04-08T08:38:09.532Z,58.11
2023-04-08T08:40:37.919Z,57.62
2023-04-08T08:43:06.302Z,57.55
2023-04-08T08:45:41.044Z,57.62
2023-04-08T08:48:09.845Z,57.67
2023-04-08T08:50:38.336Z,57.69
2023-04-08T08:53:06.798Z,55.88
2023-04-08T08:56:00.306Z,54.95
2023-04-08T08:58:28.059Z,54.53
2023-04-08T09:00:56.518Z,55.10
2023-04-08T09:03:29.631Z,55.45
2023-04-08T09:05:59.546Z,55.69
2023-04-08T09:08:34.680Z,53.77
2023-04-08T09:11:15.916Z,53.97
2023-04-08T09:13:45.575Z,54.19
2023-04-08T09:16:20.336Z,53.72
2023-04-08T09:18:50.006Z,52.69
2023-04-08T09:21:22.714Z,52.31
2023-04-08T09:23:53.190Z,52.76
2023-04-08T09:26:24.375Z,52.18
2023-04-08T09:29:14.287Z,52.65
2023-04-08T09:31:59.202Z,52.69
2023-04-08T09:34:29.803Z,52.02
2023-04-08T09:36:58.232Z,51.91
2023-04-08T09:39:26.605Z,52.20
2023-04-08T09:42:01.540Z,52.47
2023-04-08T09:44:33.387Z,50.80
2023-04-08T09:47:13.048Z,50.68
2023-04-08T09:49:50.434Z,51.00
2023-04-08T09:52:42.766Z,51.02
2023-04-08T09:55:14.457Z,51.11
2023-04-08T09:57:59.694Z,50.75
2023-04-08T10:00:32.679Z,48.25
2023-04-08T10:03:19.225Z,49.12
2023-04-08T10:05:49.918Z,49.61
2023-04-08T10:08:18.919Z,49.45
2023-04-08T10:10:48.140Z,49.13
2023-04-08T10:13:17.092Z,48.75
2023-04-08T10:15:47.818Z,49.07
2023-04-08T10:18:19.419Z,49.19
2023-04-08T10:20:49.476Z,48.77
2023-04-08T10:23:18.834Z,47.87
2023-04-08T10:25:48.707Z,46.55
2023-04-08T10:28:18.505Z,46.25
2023-04-08T10:30:51.575Z,46.67
2023-04-08T10:33:31.315Z,46.52
2023-04-08T10:36:12.132Z,46.15
2023-04-08T10:38:44.432Z,45.16
2023-04-08T10:41:21.817Z,44.83
2023-04-08T10:43:51.111Z,44.64
2023-04-08T10:46:20.063Z,44.65
2023-04-08T10:49:01.670Z,44.58
2023-04-08T10:51:35.243Z,43.70
2023-04-08T10:54:08.618Z,43.05
2023-04-08T10:56:43.982Z,42.23
2023-04-08T10:59:13.994Z,41.79
2023-04-08T11:01:45.291Z,40.77
2023-04-08T11:04:23.766Z,41.12
2023-04-08T11:06:52.291Z,38.30
2023-04-08T11:09:21.256Z,38.34
2023-04-08T11:11:49.747Z,39.29
2023-04-08T11:14:22.125Z,39.53
2023-04-08T11:16:52.204Z,39.36
2023-04-08T11:19:20.825Z,39.77
2023-04-08T11:21:51.562Z,39.61
2023-04-08T11:24:22.461Z,39.35
2023-04-08T11:26:51.330Z,38.99
2023-04-08T11:29:21.391Z,38.73
2023-04-08T11:31:51.557Z,37.69
2023-04-08T11:34:24.795Z,38.14
2023-04-08T11:36:53.462Z,37.54
2023-04-08T11:39:24.900Z,37.37
2023-04-08T11:41:53.476Z,37.46
2023-04-08T11:44:33.432Z,37.29
2023-04-08T11:47:02.837Z,37.38
2023-04-08T11:49:44.836Z,37.03
2023-04-08T11:52:13.985Z,37.06
2023-04-08T11:54:43.365Z,36.97
2023-04-08T11:57:11.928Z,34.67
2023-04-08T11:59:40.418Z,35.13
2023-04-08T12:02:09.450Z,35.53
2023-04-08T12:04:38.271Z,36.04
2023-04-08T12:07:06.692Z,35.49
2023-04-08T12:09:35.093Z,34.14
2023-04-08T12:12:03.568Z,34.53
2023-04-08T12:14:32.359Z,34.32
2023-04-08T12:17:01.360Z,33.53
2023-04-08T12:19:31.199Z,33.75
2023-04-08T12:22:00.788Z,33.89
2023-04-08T12:24:29.173Z,33.30
2023-04-08T12:26:57.965Z,32.37
2023-04-08T12:29:26.145Z,32.59
2023-04-08T12:31:54.735Z,33.02
2023-04-08T12:34:23.239Z,32.97
2023-04-08T12:36:51.610Z,33.71
2023-04-08T12:39:19.891Z,34.23
2023-04-08T12:41:48.482Z,34.22
2023-04-08T12:44:17.377Z,33.91
2023-04-08T12:46:46.574Z,34.05
2023-04-08T12:49:15.174Z,34.73
2023-04-08T12:51:43.660Z,34.87
2023-04-08T12:54:12.674Z,35.60
2023-04-08T12:56:43.394Z,35.49
2023-04-08T12:59:11.882Z,36.33
2023-04-08T13:01:40.196Z,36.91
2023-04-08T13:04:09.014Z,36.56
2023-04-08T13:06:37.344Z,36.40
2023-04-08T13:09:05.627Z,36.72
2023-04-08T13:11:34.367Z,36.53
2023-04-08T13:14:02.833Z,36.85
2023-04-08T13:16:31.319Z,36.94
2023-04-08T13:18:59.883Z,37.17
2023-04-08T13:21:28.365Z,37.31
2023-04-08T13:23:56.657Z,37.03
2023-04-08T13:26:25.138Z,36.83
2023-04-08T13:28:57.198Z,37.28
2023-04-08T13:31:26.886Z,37.13
2023-04-08T13:33:57.921Z,37.34
2023-04-08T13:36:29.069Z,37.71
2023-04-08T13:38:57.902Z,37.60
2023-04-08T13:41:28.334Z,37.84
2023-04-08T13:43:57.137Z,38.01
2023-04-08T13:46:26.145Z,38.32
2023-04-08T13:48:56.251Z,37.99
2023-04-08T13:51:24.849Z,38.53
2023-04-08T13:53:53.327Z,38.90
2023-04-08T13:56:21.707Z,39.16
2023-04-08T13:58:56.824Z,38.99
2023-04-08T14:01:25.999Z,38.87
2023-04-08T14:03:54.333Z,39.03
2023-04-08T14:06:23.337Z,38.52
2023-04-08T14:08:51.872Z,38.63
2023-04-08T14:11:21.531Z,39.13
2023-04-08T14:13:50.032Z,39.40
2023-04-08T14:16:18.988Z,39.50
2023-04-08T14:18:47.502Z,39.42
2023-04-08T14:21:18.368Z,39.57
2023-04-08T14:23:46.942Z,39.90
2023-04-08T14:26:16.032Z,40.02
2023-04-08T14:28:44.524Z,40.00
2023-04-08T14:31:13.253Z,39.64
2023-04-08T14:33:42.838Z,40.06
2023-04-08T14:36:12.411Z,40.11
2023-04-08T14:38:41.028Z,40.23
2023-04-08T14:41:09.413Z,40.28
2023-04-08T14:43:37.740Z,40.46
2023-04-08T14:46:06.393Z,40.85
2023-04-08T14:48:34.975Z,40.77
2023-04-08T14:51:04.506Z,41.26
2023-04-08T14:53:33.897Z,41.52
2023-04-08T14:56:02.283Z,42.04
2023-04-08T14:58:30.666Z,42.28
2023-04-08T15:00:58.946Z,42.42
2023-04-08T15:03:27.779Z,42.31
2023-04-08T15:05:59.837Z,42.44
2023-04-08T15:08:28.709Z,42.60
2023-04-08T15:10:57.289Z,42.71
2023-04-08T15:13:25.582Z,42.89
2023-04-08T15:15:54.909Z,43.23
2023-04-08T15:18:23.979Z,43.46
2023-04-08T15:20:52.873Z,43.68
2023-04-08T15:23:22.294Z,43.55
2023-04-08T15:25:51.182Z,43.96
2023-04-08T15:28:19.664Z,44.11
2023-04-08T15:30:49.595Z,44.36
2023-04-08T15:33:17.973Z,44.49
2023-04-08T15:35:49.820Z,44.75
2023-04-08T15:38:18.666Z,45.08
2023-04-08T15:40:48.213Z,45.43
2023-04-08T15:43:16.932Z,45.61
2023-04-08T15:45:46.955Z,45.50
2023-04-08T15:48:15.980Z,45.91
2023-04-08T15:50:44.597Z,46.18
2023-04-08T15:53:13.227Z,46.13
2023-04-08T15:55:42.188Z,46.70
2023-04-08T15:58:10.618Z,46.81
2023-04-08T16:00:39.105Z,47.37
2023-04-08T16:03:09.197Z,47.58
2023-04-08T16:05:39.878Z,47.76
2023-04-08T16:08:08.451Z,48.42
2023-04-08T16:10:36.829Z,49.19
2023-04-08T16:13:05.423Z,49.96
2023-04-08T16:15:34.828Z,49.95
2023-04-08T16:18:04.762Z,50.05
2023-04-08T16:20:33.441Z,50.34
2023-04-08T16:23:01.831Z,50.55
2023-04-08T16:25:30.516Z,50.70
2023-04-08T16:27:59.214Z,50.63
2023-04-08T16:30:27.927Z,50.63
2023-04-08T16:32:56.440Z,50.93
2023-04-08T16:35:24.975Z,51.45
2023-04-08T16:37:53.265Z,51.59
2023-04-08T16:40:22.274Z,52.03
2023-04-08T16:42:51.374Z,51.86
2023-04-08T16:45:19.767Z,51.92
2023-04-08T16:47:48.580Z,52.46
2023-04-08T16:50:17.437Z,53.16
2023-04-08T16:52:49.626Z,53.63
2023-04-08T16:55:19.480Z,54.08
2023-04-08T16:57:48.011Z,54.04
2023-04-08T17:00:18.613Z,54.24
2023-04-08T17:02:49.372Z,54.59
2023-04-08T17:05:18.179Z,55.25
2023-04-08T17:07:46.775Z,55.79
2023-04-08T17:10:16.020Z,55.69
2023-04-08T17:12:44.766Z,56.06
2023-04-08T17:15:13.458Z,56.38
2023-04-08T17:17:42.155Z,56.66
2023-04-08T17:20:11.658Z,56.52
2023-04-08T17:22:39.950Z,57.01
2023-04-08T17:25:08.942Z,57.62
2023-04-08T17:27:37.950Z,57.94
2023-04-08T17:30:08.367Z,58.00
2023-04-08T17:32:37.847Z,58.19
2023-04-08T17:35:06.700Z,58.26
2023-04-08T17:37:35.061Z,58.36
2023-04-08T17:40:03.662Z,58.61
2023-04-08T17:42:32.456Z,58.60
2023-04-08T17:45:02.881Z,58.79
2023-04-08T17:47:31.537Z,59.47
2023-04-08T17:49:59.846Z,60.01
2023-04-08T17:52:28.238Z,59.99
2023-04-08T17:54:56.819Z,60.70
2023-04-08T17:57:25.211Z,60.72
2023-04-08T17:59:53.597Z,61.00
2023-04-08T18:02:22.552Z,61.06
2023-04-08T18:04:51.383Z,61.51
2023-04-08T18:07:19.971Z,61.48
2023-04-08T18:09:51.018Z,61.82
2023-04-08T18:12:20.113Z,61.58
2023-04-08T18:14:48.607Z,61.81
2023-04-08T18:17:17.090Z,62.12
2023-04-08T18:19:45.474Z,62.05
2023-04-08T18:22:16.006Z,62.58
2023-04-08T18:24:44.597Z,62.39
2023-04-08T18:27:12.982Z,62.68
2023-04-08T18:29:41.364Z,62.90
2023-04-08T18:32:09.952Z,62.87
2023-04-08T18:34:39.156Z,63.06
2023-04-08T18:37:07.444Z,62.91
2023-04-08T18:39:40.207Z,62.66
2023-04-08T18:42:08.614Z,62.44
2023-04-08T18:44:37.598Z,62.38
2023-04-08T18:47:07.412Z,62.28
2023-04-08T18:49:38.604Z,62.42
2023-04-08T18:52:08.558Z,62.60
2023-04-08T18:54:36.981Z,62.45
2023-04-08T18:57:05.468Z,62.66
2023-04-08T18:59:34.064Z,62.54
2023-04-08T19:02:02.535Z,62.77
2023-04-08T19:04:31.190Z,63.05
2023-04-08T19:06:59.413Z,62.76
2023-04-08T19:09:28.104Z,63.57
2023-04-08T19:11:56.586Z,63.23
2023-04-08T19:14:26.273Z,63.24
2023-04-08T19:16:54.899Z,63.34
2023-04-08T19:19:23.276Z,63.26
2023-04-08T19:21:51.669Z,63.70
2023-04-08T19:24:21.170Z,63.77
2023-04-08T19:26:52.112Z,63.80
2023-04-08T19:29:23.175Z,64.15
2023-04-08T19:31:51.543Z,63.90
2023-04-08T19:34:20.235Z,64.36
2023-04-08T19:36:48.728Z,64.55
2023-04-08T19:39:17.314Z,64.59
2023-04-08T19:41:46.274Z,64.83
2023-04-08T19:44:14.593Z,65.05
2023-04-08T19:46:43.509Z,65.19
2023-04-08T19:49:12.080Z,65.49
2023-04-08T19:51:40.564Z,65.41
2023-04-08T19:54:09.061Z,65.73
2023-04-08T19:56:37.332Z,65.63
2023-04-08T19:59:06.124Z,66.03
2023-04-08T20:01:36.430Z,66.21
2023-04-08T20:04:05.317Z,66.39
2023-04-08T20:06:34.963Z,66.30
2023-04-08T20:09:05.840Z,66.44
2023-04-08T20:11:34.499Z,66.28
2023-04-08T20:14:04.220Z,66.95
2023-04-08T20:16:34.412Z,67.23
2023-04-08T20:19:03.028Z,66.88
2023-04-08T20:21:31.516Z,66.87
2023-04-08T20:24:00.414Z,66.91
2023-04-08T20:26:29.001Z,66.85
2023-04-08T20:28:59.026Z,66.62
2023-04-08T20:31:28.193Z,66.63
2023-04-08T20:33:56.714Z,66.56
2023-04-08T20:36:25.422Z,66.71
2023-04-08T20:38:55.187Z,66.59
2023-04-08T20:41:24.527Z,66.40
2023-04-08T20:43:54.244Z,66.28
2023-04-08T20:46:24.799Z,66.45
2023-04-08T20:48:53.858Z,66.43
2023-04-08T20:51:22.469Z,66.50
2023-04-08T20:53:51.167Z,66.42
2023-04-08T20:56:19.645Z,66.49
2023-04-08T20:58:47.929Z,66.74
2023-04-08T21:01:16.663Z,66.94
2023-04-08T21:03:52.837Z,66.94
2023-04-08T21:06:22.258Z,67.07
2023-04-08T21:08:51.588Z,67.19
2023-04-08T21:11:20.185Z,67.41
2023-04-08T21:13:49.281Z,67.28
2023-04-08T21:16:18.025Z,67.20
2023-04-08T21:18:46.876Z,67.73
2023-04-08T21:21:15.264Z,67.54
2023-04-08T21:23:43.851Z,67.97
2023-04-08T21:26:13.679Z,67.80
2023-04-08T21:28:42.169Z,67.93
2023-04-08T21:31:12.087Z,68.24
2023-04-08T21:33:40.771Z,68.38
2023-04-08T21:36:09.282Z,68.75
2023-04-08T21:38:37.634Z,69.22
2023-04-08T21:41:06.025Z,69.13
2023-04-08T21:43:34.404Z,69.26
2023-04-08T21:46:03.818Z,69.39
2023-04-08T21:48:33.120Z,69.43
2023-04-08T21:51:01.941Z,69.84
2023-04-08T21:53:30.913Z,69.85
2023-04-08T21:55:59.391Z,69.83
2023-04-08T21:58:28.497Z,69.75
2023-04-08T22:00:57.102Z,69.71
2023-04-08T22:03:25.710Z,69.76
2023-04-08T22:05:54.273Z,69.57
2023-04-08T22:08:23.366Z,69.26
2023-04-08T22:10:52.054Z,69.39
2023-04-08T22:13:21.476Z,69.31
2023-04-08T22:15:49.888Z,69.20
2023-04-08T22:18:18.228Z,69.05
2023-04-08T22:20:47.228Z,69.05
2023-04-08T22:23:16.257Z,68.63
2023-04-08T22:25:44.859Z,68.62
2023-04-08T22:28:13.105Z,68.50
2023-04-08T22:30:41.625Z,68.64
2023-04-08T22:33:10.096Z,68.57
2023-04-08T22:35:40.849Z,68.45
2023-04-08T22:38:09.300Z,68.52
2023-04-08T22:40:37.888Z,68.71
2023-04-08T22:43:07.106Z,68.67
2023-04-08T22:45:37.363Z,68.82
2023-04-08T22:48:06.384Z,68.96
2023-04-08T22:50:35.011Z,68.91
2023-04-08T22:53:04.019Z,68.81
2023-04-08T22:55:32.388Z,68.79
2023-04-08T22:58:06.512Z,69.07
2023-04-08T23:00:35.301Z,69.08
2023-04-08T23:03:05.036Z,69.07
2023-04-08T23:05:34.100Z,69.16
2023-04-08T23:08:02.608Z,69.27
2023-04-08T23:10:30.884Z,69.44
2023-04-08T23:12:59.277Z,69.59
2023-04-08T23:15:28.160Z,69.85
2023-04-08T23:17:56.883Z,70.06
2023-04-08T23:20:32.920Z,70.43
2023-04-08T23:23:02.747Z,70.90
2023-04-08T23:25:31.011Z,70.88
2023-04-08T23:27:59.293Z,71.16
2023-04-08T23:30:27.781Z,71.32
2023-04-08T23:32:56.217Z,71.35
2023-04-08T23:35:24.753Z,71.49
2023-04-08T23:37:53.142Z,71.56
2023-04-08T23:40:21.732Z,71.82
2023-04-08T23:42:52.979Z,71.42
2023-04-08T23:45:21.589Z,71.40
2023-04-08T23:47:50.848Z,71.67
2023-04-08T23:50:23.206Z,71.69
2023-04-08T23:52:51.636Z,71.55
2023-04-08T23:55:20.142Z,71.27
2023-04-08T23:57:50.858Z,71.27
